sensor_id;sensor_type;location;lat;lon;timestamp;temperature;humidity
22167;DHT22;11249;52.468;13.776;2023-03-23T00:01:25;11.30;99.90
22167;DHT22;11249;52.468;13.776;2023-03-23T00:03:55;11.20;99.90
22167;DHT22;11249;52.468;13.776;2023-03-23T00:06:23;11.20;99.90
22167;DHT22;11249;52.468;13.776;2023-03-23T00:08:50;11.20;99.90
22167;DHT22;11249;52.468;13.776;2023-03-23T00:11:25;11.10;99.90
22167;DHT22;11249;52.468;13.776;2023-03-23T00:13:57;11.00;99.90
22167;DHT22;11249;52.468;13.776;2023-03-23T00:16:24;10.90;99.90
22167;DHT22;11249;52.468;13.776;2023-03-23T00:19:07;10.90;99.90
22167;DHT22;11249;52.468;13.776;2023-03-23T00:21:35;10.80;99.90
22167;DHT22;11249;52.468;13.776;2023-03-23T00:24:08;10.70;99.90
22167;DHT22;11249;52.468;13.776;2023-03-23T00:26:41;10.70;99.90
22167;DHT22;11249;52.468;13.776;2023-03-23T00:29:16;10.60;99.90
22167;DHT22;11249;52.468;13.776;2023-03-23T00:31:43;10.60;99.90
22167;DHT22;11249;52.468;13.776;2023-03-23T00:34:13;10.50;99.90
22167;DHT22;11249;52.468;13.776;2023-03-23T00:36:43;10.50;99.90
22167;DHT22;11249;52.468;13.776;2023-03-23T00:39:10;10.50;99.90
22167;DHT22;11249;52.468;13.776;2023-03-23T00:41:35;10.50;99.90
22167;DHT22;11249;52.468;13.776;2023-03-23T00:44:02;10.60;99.90
22167;DHT22;11249;52.468;13.776;2023-03-23T00:46:28;10.60;99.90
22167;DHT22;11249;52.468;13.776;2023-03-23T00:48:55;10.50;99.90
22167;DHT22;11249;52.468;13.776;2023-03-23T00:51:22;10.50;99.90
22167;DHT22;11249;52.468;13.776;2023-03-23T00:53:48;10.50;99.90
22167;DHT22;11249;52.468;13.776;2023-03-23T00:56:14;10.60;99.90
22167;DHT22;11249;52.468;13.776;2023-03-23T00:58:40;10.60;99.90
22167;DHT22;11249;52.468;13.776;2023-03-23T01:01:07;10.60;99.90
22167;DHT22;11249;52.468;13.776;2023-03-23T01:03:32;10.50;99.90
22167;DHT22;11249;52.468;13.776;2023-03-23T01:06:04;10.50;99.90
22167;DHT22;11249;52.468;13.776;2023-03-23T01:08:31;10.50;99.90
22167;DHT22;11249;52.468;13.776;2023-03-23T01:11:05;10.50;99.90
22167;DHT22;11249;52.468;13.776;2023-03-23T01:13:31;10.50;99.90
22167;DHT22;11249;52.468;13.776;2023-03-23T01:15:56;10.60;99.90
22167;DHT22;11249;52.468;13.776;2023-03-23T01:18:22;10.50;99.90
22167;DHT22;11249;52.468;13.776;2023-03-23T01:20:47;10.50;99.90
22167;DHT22;11249;52.468;13.776;2023-03-23T01:23:13;10.40;99.90
22167;DHT22;11249;52.468;13.776;2023-03-23T01:25:39;10.40;99.90
22167;DHT22;11249;52.468;13.776;2023-03-23T01:28:04;10.40;99.90
22167;DHT22;11249;52.468;13.776;2023-03-23T01:30:30;10.30;99.90
22167;DHT22;11249;52.468;13.776;2023-03-23T01:32:56;10.30;99.90
22167;DHT22;11249;52.468;13.776;2023-03-23T01:35:22;10.20;99.90
22167;DHT22;11249;52.468;13.776;2023-03-23T01:37:47;10.10;99.90
22167;DHT22;11249;52.468;13.776;2023-03-23T01:40:14;10.10;99.90
22167;DHT22;11249;52.468;13.776;2023-03-23T01:42:40;10.00;99.90
22167;DHT22;11249;52.468;13.776;2023-03-23T01:47:57;9.90;99.90
22167;DHT22;11249;52.468;13.776;2023-03-23T01:50:24;9.80;99.90
22167;DHT22;11249;52.468;13.776;2023-03-23T01:52:53;9.80;99.90
22167;DHT22;11249;52.468;13.776;2023-03-23T01:55:21;9.70;99.90
22167;DHT22;11249;52.468;13.776;2023-03-23T01:57:47;9.80;99.90
22167;DHT22;11249;52.468;13.776;2023-03-23T02:00:14;9.80;99.90
22167;DHT22;11249;52.468;13.776;2023-03-23T02:02:46;9.70;99.90
22167;DHT22;11249;52.468;13.776;2023-03-23T02:05:29;9.80;99.90
22167;DHT22;11249;52.468;13.776;2023-03-23T02:07:58;9.70;99.90
22167;DHT22;11249;52.468;13.776;2023-03-23T02:10:30;9.70;99.90
22167;DHT22;11249;52.468;13.776;2023-03-23T02:12:57;9.70;99.90
22167;DHT22;11249;52.468;13.776;2023-03-23T02:15:26;9.70;99.90
22167;DHT22;11249;52.468;13.776;2023-03-23T02:18:03;9.80;99.90
22167;DHT22;11249;52.468;13.776;2023-03-23T02:20:40;9.70;99.90
22167;DHT22;11249;52.468;13.776;2023-03-23T02:26:32;9.70;99.90
22167;DHT22;11249;52.468;13.776;2023-03-23T02:29:11;9.70;99.90
22167;DHT22;11249;52.468;13.776;2023-03-23T02:34:42;9.80;99.90
22167;DHT22;11249;52.468;13.776;2023-03-23T02:37:14;9.90;99.90
22167;DHT22;11249;52.468;13.776;2023-03-23T02:39:47;9.90;99.90
22167;DHT22;11249;52.468;13.776;2023-03-23T02:42:21;9.90;99.90
22167;DHT22;11249;52.468;13.776;2023-03-23T02:44:50;9.90;99.90
22167;DHT22;11249;52.468;13.776;2023-03-23T02:47:23;9.90;99.90
22167;DHT22;11249;52.468;13.776;2023-03-23T02:49:52;9.90;99.90
22167;DHT22;11249;52.468;13.776;2023-03-23T02:52:23;10.00;99.90
22167;DHT22;11249;52.468;13.776;2023-03-23T02:54:50;10.00;99.90
22167;DHT22;11249;52.468;13.776;2023-03-23T02:57:17;10.00;99.90
22167;DHT22;11249;52.468;13.776;2023-03-23T02:59:43;10.00;99.90
22167;DHT22;11249;52.468;13.776;2023-03-23T03:02:21;10.00;99.90
22167;DHT22;11249;52.468;13.776;2023-03-23T03:05:20;10.10;99.90
22167;DHT22;11249;52.468;13.776;2023-03-23T03:10:54;10.20;99.90
22167;DHT22;11249;52.468;13.776;2023-03-23T03:13:31;10.20;99.90
22167;DHT22;11249;52.468;13.776;2023-03-23T03:16:18;10.20;99.90
22167;DHT22;11249;52.468;13.776;2023-03-23T03:19:02;10.20;99.90
22167;DHT22;11249;52.468;13.776;2023-03-23T03:21:33;10.30;99.90
22167;DHT22;11249;52.468;13.776;2023-03-23T03:24:02;10.30;99.90
22167;DHT22;11249;52.468;13.776;2023-03-23T03:26:32;10.30;99.90
22167;DHT22;11249;52.468;13.776;2023-03-23T03:29:00;10.30;99.90
22167;DHT22;11249;52.468;13.776;2023-03-23T03:31:30;10.40;99.90
22167;DHT22;11249;52.468;13.776;2023-03-23T03:33:57;10.30;99.90
22167;DHT22;11249;52.468;13.776;2023-03-23T03:36:31;10.40;99.90
22167;DHT22;11249;52.468;13.776;2023-03-23T03:39:03;10.40;99.90
22167;DHT22;11249;52.468;13.776;2023-03-23T03:41:34;10.40;99.90
22167;DHT22;11249;52.468;13.776;2023-03-23T03:44:01;10.40;99.90
22167;DHT22;11249;52.468;13.776;2023-03-23T03:46:27;10.40;99.90
22167;DHT22;11249;52.468;13.776;2023-03-23T03:48:55;10.40;99.90
22167;DHT22;11249;52.468;13.776;2023-03-23T03:51:26;10.40;99.90
22167;DHT22;11249;52.468;13.776;2023-03-23T03:53:52;10.40;99.90
22167;DHT22;11249;52.468;13.776;2023-03-23T03:56:17;10.50;99.90
22167;DHT22;11249;52.468;13.776;2023-03-23T03:58:45;10.50;99.90
22167;DHT22;11249;52.468;13.776;2023-03-23T04:01:11;10.60;99.90
22167;DHT22;11249;52.468;13.776;2023-03-23T04:03:37;10.50;99.90
22167;DHT22;11249;52.468;13.776;2023-03-23T04:06:04;10.60;99.90
22167;DHT22;11249;52.468;13.776;2023-03-23T04:08:30;10.60;99.90
22167;DHT22;11249;52.468;13.776;2023-03-23T04:10:57;10.60;99.90
22167;DHT22;11249;52.468;13.776;2023-03-23T04:13:23;10.60;99.90
22167;DHT22;11249;52.468;13.776;2023-03-23T04:15:49;10.70;99.90
22167;DHT22;11249;52.468;13.776;2023-03-23T04:18:16;10.70;99.90
22167;DHT22;11249;52.468;13.776;2023-03-23T04:20:44;10.60;99.90
22167;DHT22;11249;52.468;13.776;2023-03-23T04:23:10;10.60;99.90
22167;DHT22;11249;52.468;13.776;2023-03-23T04:25:36;10.60;99.90
22167;DHT22;11249;52.468;13.776;2023-03-23T04:28:02;10.60;99.90
22167;DHT22;11249;52.468;13.776;2023-03-23T04:30:28;10.70;99.90
22167;DHT22;11249;52.468;13.776;2023-03-23T04:32:56;10.70;99.90
22167;DHT22;11249;52.468;13.776;2023-03-23T04:35:23;10.60;99.90
22167;DHT22;11249;52.468;13.776;2023-03-23T04:37:53;10.60;99.90
22167;DHT22;11249;52.468;13.776;2023-03-23T04:40:20;10.60;99.90
22167;DHT22;11249;52.468;13.776;2023-03-23T04:42:46;10.60;99.90
22167;DHT22;11249;52.468;13.776;2023-03-23T04:45:14;10.60;99.90
22167;DHT22;11249;52.468;13.776;2023-03-23T04:47:41;10.60;99.90
22167;DHT22;11249;52.468;13.776;2023-03-23T04:50:11;10.60;99.90
22167;DHT22;11249;52.468;13.776;2023-03-23T04:52:39;10.60;99.90
22167;DHT22;11249;52.468;13.776;2023-03-23T04:55:07;10.60;99.90
22167;DHT22;11249;52.468;13.776;2023-03-23T04:57:33;10.50;99.90
22167;DHT22;11249;52.468;13.776;2023-03-23T05:00:01;10.50;99.90
22167;DHT22;11249;52.468;13.776;2023-03-23T05:02:36;10.50;99.90
22167;DHT22;11249;52.468;13.776;2023-03-23T05:05:09;10.60;99.90
22167;DHT22;11249;52.468;13.776;2023-03-23T05:07:36;10.50;99.90
22167;DHT22;11249;52.468;13.776;2023-03-23T05:10:02;10.50;99.90
22167;DHT22;11249;52.468;13.776;2023-03-23T05:12:28;10.50;99.90
22167;DHT22;11249;52.468;13.776;2023-03-23T05:14:54;10.50;99.90
22167;DHT22;11249;52.468;13.776;2023-03-23T05:17:19;10.50;99.90
22167;DHT22;11249;52.468;13.776;2023-03-23T05:19:45;10.50;99.90
22167;DHT22;11249;52.468;13.776;2023-03-23T05:22:15;10.50;99.90
22167;DHT22;11249;52.468;13.776;2023-03-23T05:24:42;10.50;99.90
22167;DHT22;11249;52.468;13.776;2023-03-23T05:27:09;10.40;99.90
22167;DHT22;11249;52.468;13.776;2023-03-23T05:29:35;10.50;99.90
22167;DHT22;11249;52.468;13.776;2023-03-23T05:32:03;10.40;99.90
22167;DHT22;11249;52.468;13.776;2023-03-23T05:34:29;10.50;99.90
22167;DHT22;11249;52.468;13.776;2023-03-23T05:36:58;10.50;99.90
22167;DHT22;11249;52.468;13.776;2023-03-23T05:39:24;10.50;99.90
22167;DHT22;11249;52.468;13.776;2023-03-23T05:41:50;10.50;99.90
22167;DHT22;11249;52.468;13.776;2023-03-23T05:44:17;10.50;99.90
22167;DHT22;11249;52.468;13.776;2023-03-23T05:46:43;10.50;99.90
22167;DHT22;11249;52.468;13.776;2023-03-23T05:49:09;10.50;99.90
22167;DHT22;11249;52.468;13.776;2023-03-23T05:51:34;10.50;99.90
22167;DHT22;11249;52.468;13.776;2023-03-23T05:54:01;10.50;99.90
22167;DHT22;11249;52.468;13.776;2023-03-23T05:56:27;10.50;99.90
22167;DHT22;11249;52.468;13.776;2023-03-23T05:58:57;10.50;99.90
22167;DHT22;11249;52.468;13.776;2023-03-23T06:01:24;10.50;99.90
22167;DHT22;11249;52.468;13.776;2023-03-23T06:03:50;10.60;99.90
22167;DHT22;11249;52.468;13.776;2023-03-23T06:06:20;10.60;99.90
22167;DHT22;11249;52.468;13.776;2023-03-23T06:08:46;10.60;99.90
22167;DHT22;11249;52.468;13.776;2023-03-23T06:11:12;10.60;99.90
22167;DHT22;11249;52.468;13.776;2023-03-23T06:13:38;10.70;99.90
22167;DHT22;11249;52.468;13.776;2023-03-23T06:16:04;10.70;99.90
22167;DHT22;11249;52.468;13.776;2023-03-23T06:18:30;10.70;99.90
22167;DHT22;11249;52.468;13.776;2023-03-23T06:20:59;10.70;99.90
22167;DHT22;11249;52.468;13.776;2023-03-23T06:23:26;10.80;99.90
22167;DHT22;11249;52.468;13.776;2023-03-23T06:25:57;10.80;99.90
22167;DHT22;11249;52.468;13.776;2023-03-23T06:28:24;10.80;99.90
22167;DHT22;11249;52.468;13.776;2023-03-23T06:30:50;10.90;99.90
22167;DHT22;11249;52.468;13.776;2023-03-23T06:33:18;10.90;99.90
22167;DHT22;11249;52.468;13.776;2023-03-23T06:35:43;10.80;99.90
22167;DHT22;11249;52.468;13.776;2023-03-23T06:38:09;10.80;99.90
22167;DHT22;11249;52.468;13.776;2023-03-23T06:40:35;10.70;99.90
22167;DHT22;11249;52.468;13.776;2023-03-23T06:43:02;10.70;99.90
22167;DHT22;11249;52.468;13.776;2023-03-23T06:45:28;10.70;99.90
22167;DHT22;11249;52.468;13.776;2023-03-23T06:47:53;10.60;99.90
22167;DHT22;11249;52.468;13.776;2023-03-23T06:50:19;10.60;99.90
22167;DHT22;11249;52.468;13.776;2023-03-23T06:52:46;10.50;99.90
22167;DHT22;11249;52.468;13.776;2023-03-23T06:55:12;10.50;99.90
22167;DHT22;11249;52.468;13.776;2023-03-23T06:57:38;10.60;99.90
22167;DHT22;11249;52.468;13.776;2023-03-23T07:00:05;10.50;99.90
22167;DHT22;11249;52.468;13.776;2023-03-23T07:02:42;10.50;99.90
22167;DHT22;11249;52.468;13.776;2023-03-23T07:05:09;10.50;99.90
22167;DHT22;11249;52.468;13.776;2023-03-23T07:07:38;10.50;99.90
22167;DHT22;11249;52.468;13.776;2023-03-23T07:10:05;10.50;99.90
22167;DHT22;11249;52.468;13.776;2023-03-23T07:12:31;10.50;99.90
22167;DHT22;11249;52.468;13.776;2023-03-23T07:14:58;10.60;99.90
22167;DHT22;11249;52.468;13.776;2023-03-23T07:17:24;10.60;99.90
22167;DHT22;11249;52.468;13.776;2023-03-23T07:19:50;10.60;99.90
22167;DHT22;11249;52.468;13.776;2023-03-23T07:22:16;10.70;99.90
22167;DHT22;11249;52.468;13.776;2023-03-23T07:24:42;10.70;99.90
22167;DHT22;11249;52.468;13.776;2023-03-23T07:27:08;10.80;99.90
22167;DHT22;11249;52.468;13.776;2023-03-23T07:29:34;10.80;99.90
22167;DHT22;11249;52.468;13.776;2023-03-23T07:32:01;10.80;99.90
22167;DHT22;11249;52.468;13.776;2023-03-23T07:34:27;10.70;99.90
22167;DHT22;11249;52.468;13.776;2023-03-23T07:36:53;10.80;99.90
22167;DHT22;11249;52.468;13.776;2023-03-23T07:39:19;10.80;99.90
22167;DHT22;11249;52.468;13.776;2023-03-23T07:41:45;10.80;99.90
22167;DHT22;11249;52.468;13.776;2023-03-23T07:44:10;10.80;99.90
22167;DHT22;11249;52.468;13.776;2023-03-23T07:46:36;10.80;99.90
22167;DHT22;11249;52.468;13.776;2023-03-23T07:49:02;10.80;99.90
22167;DHT22;11249;52.468;13.776;2023-03-23T07:51:31;10.80;99.90
22167;DHT22;11249;52.468;13.776;2023-03-23T07:53:58;10.80;99.90
22167;DHT22;11249;52.468;13.776;2023-03-23T07:56:24;10.90;99.90
22167;DHT22;11249;52.468;13.776;2023-03-23T07:58:50;10.90;99.90
22167;DHT22;11249;52.468;13.776;2023-03-23T08:01:16;10.90;99.90
22167;DHT22;11249;52.468;13.776;2023-03-23T08:03:42;11.00;99.90
22167;DHT22;11249;52.468;13.776;2023-03-23T08:06:08;11.10;99.90
22167;DHT22;11249;52.468;13.776;2023-03-23T08:08:35;11.10;99.90
22167;DHT22;11249;52.468;13.776;2023-03-23T08:11:01;11.10;99.90
22167;DHT22;11249;52.468;13.776;2023-03-23T08:13:27;11.20;99.90
22167;DHT22;11249;52.468;13.776;2023-03-23T08:15:53;11.20;99.90
22167;DHT22;11249;52.468;13.776;2023-03-23T08:18:18;11.20;99.90
22167;DHT22;11249;52.468;13.776;2023-03-23T08:20:44;11.20;99.90
22167;DHT22;11249;52.468;13.776;2023-03-23T08:23:10;11.20;99.90
22167;DHT22;11249;52.468;13.776;2023-03-23T08:25:36;11.30;99.90
22167;DHT22;11249;52.468;13.776;2023-03-23T08:28:02;11.30;99.90
22167;DHT22;11249;52.468;13.776;2023-03-23T08:30:29;11.40;99.90
22167;DHT22;11249;52.468;13.776;2023-03-23T08:32:56;11.40;99.90
22167;DHT22;11249;52.468;13.776;2023-03-23T08:35:22;11.50;99.90
22167;DHT22;11249;52.468;13.776;2023-03-23T08:37:47;11.60;99.90
22167;DHT22;11249;52.468;13.776;2023-03-23T08:40:17;11.60;99.90
22167;DHT22;11249;52.468;13.776;2023-03-23T08:42:46;11.70;99.90
22167;DHT22;11249;52.468;13.776;2023-03-23T08:45:16;11.70;99.90
22167;DHT22;11249;52.468;13.776;2023-03-23T08:47:42;11.70;99.90
22167;DHT22;11249;52.468;13.776;2023-03-23T08:50:11;11.80;99.90
22167;DHT22;11249;52.468;13.776;2023-03-23T08:52:37;11.80;99.90
22167;DHT22;11249;52.468;13.776;2023-03-23T08:55:03;11.80;99.90
22167;DHT22;11249;52.468;13.776;2023-03-23T08:57:31;11.80;99.90
22167;DHT22;11249;52.468;13.776;2023-03-23T08:59:56;11.90;99.90
22167;DHT22;11249;52.468;13.776;2023-03-23T09:02:33;11.90;99.90
22167;DHT22;11249;52.468;13.776;2023-03-23T09:04:59;12.00;99.90
22167;DHT22;11249;52.468;13.776;2023-03-23T09:07:26;11.90;99.90
22167;DHT22;11249;52.468;13.776;2023-03-23T09:09:52;12.00;99.90
22167;DHT22;11249;52.468;13.776;2023-03-23T09:12:18;12.00;99.90
22167;DHT22;11249;52.468;13.776;2023-03-23T09:14:44;12.10;99.90
22167;DHT22;11249;52.468;13.776;2023-03-23T09:17:10;12.20;99.90
22167;DHT22;11249;52.468;13.776;2023-03-23T09:19:38;12.20;99.90
22167;DHT22;11249;52.468;13.776;2023-03-23T09:22:04;12.20;99.90
22167;DHT22;11249;52.468;13.776;2023-03-23T09:24:30;12.40;99.90
22167;DHT22;11249;52.468;13.776;2023-03-23T09:26:56;12.50;99.90
22167;DHT22;11249;52.468;13.776;2023-03-23T09:29:24;12.60;99.90
22167;DHT22;11249;52.468;13.776;2023-03-23T09:31:50;12.70;99.90
22167;DHT22;11249;52.468;13.776;2023-03-23T09:34:16;12.70;99.90
22167;DHT22;11249;52.468;13.776;2023-03-23T09:36:43;12.80;99.90
22167;DHT22;11249;52.468;13.776;2023-03-23T09:39:09;12.90;99.90
22167;DHT22;11249;52.468;13.776;2023-03-23T09:42:11;12.90;99.90
22167;DHT22;11249;52.468;13.776;2023-03-23T09:47:46;13.00;99.90
22167;DHT22;11249;52.468;13.776;2023-03-23T09:50:24;13.00;99.90
22167;DHT22;11249;52.468;13.776;2023-03-23T09:53:19;13.00;99.90
22167;DHT22;11249;52.468;13.776;2023-03-23T09:55:41;13.10;99.90
22167;DHT22;11249;52.468;13.776;2023-03-23T09:58:23;13.20;99.90
22167;DHT22;11249;52.468;13.776;2023-03-23T10:03:31;13.30;99.90
22167;DHT22;11249;52.468;13.776;2023-03-23T10:05:57;13.40;99.90
22167;DHT22;11249;52.468;13.776;2023-03-23T10:08:29;13.50;99.90
22167;DHT22;11249;52.468;13.776;2023-03-23T10:15:55;13.80;99.90
22167;DHT22;11249;52.468;13.776;2023-03-23T10:18:49;13.90;99.90
22167;DHT22;11249;52.468;13.776;2023-03-23T10:21:21;14.00;99.90
22167;DHT22;11249;52.468;13.776;2023-03-23T10:24:02;14.00;99.90
22167;DHT22;11249;52.468;13.776;2023-03-23T10:37:27;14.20;99.90
22167;DHT22;11249;52.468;13.776;2023-03-23T10:39:58;14.30;99.90
22167;DHT22;11249;52.468;13.776;2023-03-23T10:42:35;14.30;99.90
22167;DHT22;11249;52.468;13.776;2023-03-23T10:45:17;14.30;99.90
22167;DHT22;11249;52.468;13.776;2023-03-23T10:48:15;14.50;99.90
22167;DHT22;11249;52.468;13.776;2023-03-23T10:50:44;14.50;99.90
22167;DHT22;11249;52.468;13.776;2023-03-23T10:53:26;14.60;99.90
22167;DHT22;11249;52.468;13.776;2023-03-23T10:55:53;14.60;99.90
22167;DHT22;11249;52.468;13.776;2023-03-23T10:58:26;14.60;99.90
22167;DHT22;11249;52.468;13.776;2023-03-23T11:00:55;14.70;99.90
22167;DHT22;11249;52.468;13.776;2023-03-23T11:03:23;14.70;99.90
22167;DHT22;11249;52.468;13.776;2023-03-23T11:05:58;14.70;99.90
22167;DHT22;11249;52.468;13.776;2023-03-23T11:08:30;14.70;99.90
22167;DHT22;11249;52.468;13.776;2023-03-23T11:11:17;14.60;99.90
22167;DHT22;11249;52.468;13.776;2023-03-23T11:13:45;14.70;99.90
22167;DHT22;11249;52.468;13.776;2023-03-23T11:16:23;14.60;99.90
22167;DHT22;11249;52.468;13.776;2023-03-23T11:18:49;14.70;99.90
22167;DHT22;11249;52.468;13.776;2023-03-23T11:21:15;14.70;99.90
22167;DHT22;11249;52.468;13.776;2023-03-23T11:24:00;14.70;99.90
22167;DHT22;11249;52.468;13.776;2023-03-23T11:26:34;14.80;99.90
22167;DHT22;11249;52.468;13.776;2023-03-23T11:29:13;14.80;99.90
22167;DHT22;11249;52.468;13.776;2023-03-23T11:31:42;14.80;99.90
22167;DHT22;11249;52.468;13.776;2023-03-23T11:34:14;14.90;99.90
22167;DHT22;11249;52.468;13.776;2023-03-23T11:36:49;14.90;99.90
22167;DHT22;11249;52.468;13.776;2023-03-23T11:39:46;14.90;99.90
22167;DHT22;11249;52.468;13.776;2023-03-23T11:42:23;15.00;99.90
22167;DHT22;11249;52.468;13.776;2023-03-23T11:44:54;15.20;99.90
22167;DHT22;11249;52.468;13.776;2023-03-23T11:47:54;15.20;99.90
22167;DHT22;11249;52.468;13.776;2023-03-23T11:50:32;15.30;99.90
22167;DHT22;11249;52.468;13.776;2023-03-23T11:55:27;15.30;99.90
22167;DHT22;11249;52.468;13.776;2023-03-23T11:57:55;15.40;99.90
22167;DHT22;11249;52.468;13.776;2023-03-23T12:00:25;15.50;99.90
22167;DHT22;11249;52.468;13.776;2023-03-23T12:06:10;15.50;99.90
22167;DHT22;11249;52.468;13.776;2023-03-23T12:09:03;15.50;99.90
22167;DHT22;11249;52.468;13.776;2023-03-23T12:11:53;15.70;99.90
22167;DHT22;11249;52.468;13.776;2023-03-23T12:14:40;15.70;99.90
22167;DHT22;11249;52.468;13.776;2023-03-23T12:17:35;15.80;99.90
22167;DHT22;11249;52.468;13.776;2023-03-23T12:23:08;15.80;99.90
22167;DHT22;11249;52.468;13.776;2023-03-23T12:29:08;15.90;99.90
22167;DHT22;11249;52.468;13.776;2023-03-23T12:31:49;16.10;99.90
22167;DHT22;11249;52.468;13.776;2023-03-23T12:34:40;16.20;99.90
22167;DHT22;11249;52.468;13.776;2023-03-23T12:37:41;16.30;99.90
22167;DHT22;11249;52.468;13.776;2023-03-23T12:40:36;16.10;99.90
22167;DHT22;11249;52.468;13.776;2023-03-23T12:46:16;16.00;99.90
22167;DHT22;11249;52.468;13.776;2023-03-23T12:48:48;16.00;99.90
22167;DHT22;11249;52.468;13.776;2023-03-23T12:51:36;16.00;99.90
22167;DHT22;11249;52.468;13.776;2023-03-23T12:56:48;16.10;99.90
22167;DHT22;11249;52.468;13.776;2023-03-23T13:02:32;16.20;99.90
22167;DHT22;11249;52.468;13.776;2023-03-23T13:05:08;16.00;99.90
22167;DHT22;11249;52.468;13.776;2023-03-23T13:07:39;16.00;99.90
22167;DHT22;11249;52.468;13.776;2023-03-23T13:10:22;15.90;99.90
22167;DHT22;11249;52.468;13.776;2023-03-23T13:12:50;15.80;99.90
22167;DHT22;11249;52.468;13.776;2023-03-23T13:15:20;15.90;99.90
22167;DHT22;11249;52.468;13.776;2023-03-23T13:18:03;15.90;99.90
22167;DHT22;11249;52.468;13.776;2023-03-23T13:20:54;15.90;99.90
22167;DHT22;11249;52.468;13.776;2023-03-23T13:24:01;16.10;99.90
22167;DHT22;11249;52.468;13.776;2023-03-23T13:26:29;16.40;99.90
22167;DHT22;11249;52.468;13.776;2023-03-23T13:29:01;16.70;99.90
22167;DHT22;11249;52.468;13.776;2023-03-23T13:31:36;17.00;99.90
22167;DHT22;11249;52.468;13.776;2023-03-23T13:34:25;17.20;99.90
22167;DHT22;11249;52.468;13.776;2023-03-23T13:37:06;17.40;99.90
22167;DHT22;11249;52.468;13.776;2023-03-23T13:40:21;17.50;99.90
22167;DHT22;11249;52.468;13.776;2023-03-23T13:42:54;17.30;99.90
22167;DHT22;11249;52.468;13.776;2023-03-23T13:50:53;16.90;99.90
22167;DHT22;11249;52.468;13.776;2023-03-23T13:53:44;16.80;99.90
22167;DHT22;11249;52.468;13.776;2023-03-23T13:56:21;16.60;99.90
22167;DHT22;11249;52.468;13.776;2023-03-23T13:58:52;16.70;99.90
22167;DHT22;11249;52.468;13.776;2023-03-23T14:01:35;16.60;99.90
22167;DHT22;11249;52.468;13.776;2023-03-23T14:04:15;16.50;99.90
22167;DHT22;11249;52.468;13.776;2023-03-23T14:06:41;16.40;99.90
22167;DHT22;11249;52.468;13.776;2023-03-23T14:09:17;16.60;99.90
22167;DHT22;11249;52.468;13.776;2023-03-23T14:12:04;16.80;99.90
22167;DHT22;11249;52.468;13.776;2023-03-23T14:14:54;17.10;99.90
22167;DHT22;11249;52.468;13.776;2023-03-23T14:17:33;17.10;99.90
22167;DHT22;11249;52.468;13.776;2023-03-23T14:19:59;17.00;99.90
22167;DHT22;11249;52.468;13.776;2023-03-23T14:22:37;17.40;99.90
22167;DHT22;11249;52.468;13.776;2023-03-23T14:25:17;17.10;99.90
22167;DHT22;11249;52.468;13.776;2023-03-23T14:27:44;17.00;99.90
22167;DHT22;11249;52.468;13.776;2023-03-23T14:30:19;16.80;99.90
22167;DHT22;11249;52.468;13.776;2023-03-23T14:32:45;16.80;99.90
22167;DHT22;11249;52.468;13.776;2023-03-23T14:35:27;16.60;99.90
22167;DHT22;11249;52.468;13.776;2023-03-23T14:37:55;16.50;99.90
22167;DHT22;11249;52.468;13.776;2023-03-23T14:40:21;16.40;99.90
22167;DHT22;11249;52.468;13.776;2023-03-23T14:42:47;16.40;99.90
22167;DHT22;11249;52.468;13.776;2023-03-23T14:45:17;16.30;99.90
22167;DHT22;11249;52.468;13.776;2023-03-23T14:47:46;16.20;99.90
22167;DHT22;11249;52.468;13.776;2023-03-23T14:50:25;16.10;99.90
22167;DHT22;11249;52.468;13.776;2023-03-23T14:52:51;16.00;99.90
22167;DHT22;11249;52.468;13.776;2023-03-23T14:55:20;16.00;99.90
22167;DHT22;11249;52.468;13.776;2023-03-23T14:57:47;16.00;99.90
22167;DHT22;11249;52.468;13.776;2023-03-23T15:00:19;16.00;99.90
22167;DHT22;11249;52.468;13.776;2023-03-23T15:02:48;16.00;99.90
22167;DHT22;11249;52.468;13.776;2023-03-23T15:05:19;16.00;99.90
22167;DHT22;11249;52.468;13.776;2023-03-23T15:07:51;15.90;99.90
22167;DHT22;11249;52.468;13.776;2023-03-23T15:10:20;15.80;99.90
22167;DHT22;11249;52.468;13.776;2023-03-23T15:12:47;15.80;99.90
22167;DHT22;11249;52.468;13.776;2023-03-23T15:15:40;15.80;99.90
22167;DHT22;11249;52.468;13.776;2023-03-23T15:18:26;15.70;99.90
22167;DHT22;11249;52.468;13.776;2023-03-23T15:20:54;15.70;99.90
22167;DHT22;11249;52.468;13.776;2023-03-23T15:23:28;15.60;99.90
22167;DHT22;11249;52.468;13.776;2023-03-23T15:25:56;15.50;99.90
22167;DHT22;11249;52.468;13.776;2023-03-23T15:28:29;15.30;99.90
22167;DHT22;11249;52.468;13.776;2023-03-23T15:30:59;15.10;99.90
22167;DHT22;11249;52.468;13.776;2023-03-23T15:33:25;15.00;99.90
22167;DHT22;11249;52.468;13.776;2023-03-23T15:35:56;15.00;99.90
22167;DHT22;11249;52.468;13.776;2023-03-23T15:38:24;15.00;99.90
22167;DHT22;11249;52.468;13.776;2023-03-23T15:40:55;15.30;99.90
22167;DHT22;11249;52.468;13.776;2023-03-23T15:43:25;15.60;99.90
22167;DHT22;11249;52.468;13.776;2023-03-23T15:46:02;15.90;99.90
22167;DHT22;11249;52.468;13.776;2023-03-23T15:48:30;15.90;99.90
22167;DHT22;11249;52.468;13.776;2023-03-23T15:50:57;15.90;99.90
22167;DHT22;11249;52.468;13.776;2023-03-23T15:53:27;15.80;99.90
22167;DHT22;11249;52.468;13.776;2023-03-23T15:55:53;15.90;99.90
22167;DHT22;11249;52.468;13.776;2023-03-23T15:58:19;16.20;99.90
22167;DHT22;11249;52.468;13.776;2023-03-23T16:00:46;16.60;99.90
22167;DHT22;11249;52.468;13.776;2023-03-23T16:03:24;17.00;99.90
22167;DHT22;11249;52.468;13.776;2023-03-23T16:05:54;17.30;99.90
22167;DHT22;11249;52.468;13.776;2023-03-23T16:08:23;17.50;99.90
22167;DHT22;11249;52.468;13.776;2023-03-23T16:10:49;17.60;99.90
22167;DHT22;11249;52.468;13.776;2023-03-23T16:13:16;17.50;99.90
22167;DHT22;11249;52.468;13.776;2023-03-23T16:15:45;17.20;99.90
22167;DHT22;11249;52.468;13.776;2023-03-23T16:18:17;16.90;99.90
22167;DHT22;11249;52.468;13.776;2023-03-23T16:20:45;16.70;99.90
22167;DHT22;11249;52.468;13.776;2023-03-23T16:23:12;16.50;99.90
22167;DHT22;11249;52.468;13.776;2023-03-23T16:25:39;16.30;99.90
22167;DHT22;11249;52.468;13.776;2023-03-23T16:28:13;16.10;99.90
22167;DHT22;11249;52.468;13.776;2023-03-23T16:30:42;16.00;99.90
22167;DHT22;11249;52.468;13.776;2023-03-23T16:33:09;15.90;99.90
22167;DHT22;11249;52.468;13.776;2023-03-23T16:35:36;15.80;99.90
22167;DHT22;11249;52.468;13.776;2023-03-23T16:38:03;15.70;99.90
22167;DHT22;11249;52.468;13.776;2023-03-23T16:40:35;15.70;99.90